Vega Sigma — D5EV6 — position and weather

sailwx.info

Track history (hours):
 
Tides and Currents Weather Stations Pressure Air Temp Water Temp Dewpoint Dewpoint Depression Visibility Wind Speed Wind Dir Waves Ship Positions

Vega Sigma

Last reported at 2017-Dec-09 00:57 UTC. Time now 2017-Dec-12 23:54 UTC.
Position N 41°01' E 002°02'.

Length 148 m; draft 7.8 m.

Type: Cargo ship. MMSI: 636092527.

Date/timePositionNaut miles runAvg speedWind from/ knotsBaromVisibWave heightAir tempDewpointWater temp
2017-Dec-09 00:57N 41°01' E 002°02'912.8
2017-Dec-09 00:16N 41°09' E 002°07'10 1.6
2017-Dec-08 18:01N 41°18' E 002°11'5 3.1
2017-Dec-08 16:14N 41°13' E 002°13'0 1.2
2017-Dec-08 15:59N 41°13' E 002°13'1 0.9
2017-Dec-08 15:02N 41°12' E 002°13'0 0.9
2017-Dec-08 15:00N 41°12' E 002°13'0 1.0
2017-Dec-08 14:30N 41°12' E 002°12'2 2.6
2017-Dec-08 13:47N 41°13' E 002°10'311.0
2017-Dec-08 13:30N 41°10' E 002°07'612.7
2017-Dec-08 13:00N 41°06' E 002°01'613.0
2017-Dec-08 12:30N 41°01' E 001°56'  
Track history (hours):
 
Tides and Currents Weather Stations Pressure Air Temp Water Temp Dewpoint Dewpoint Depression Visibility Wind Speed Wind Dir Waves Ship Positions

Vega Sigma

Last reported at 2017-Dec-09 00:57 UTC. Time now 2017-Dec-12 23:54 UTC.
Position N 41°01' E 002°02'.

Length 148 m; draft 7.8 m.

Type: Cargo ship. MMSI: 636092527.

Date/timePositionNaut miles runAvg speedWind from/ knotsBaromVisibWave heightAir tempDewpointWater temp
2017-Dec-09 00:57N 41°01' E 002°02'912.8
2017-Dec-09 00:16N 41°09' E 002°07'10 1.6
2017-Dec-08 18:01N 41°18' E 002°11'5 3.1
2017-Dec-08 16:14N 41°13' E 002°13'0 1.2
2017-Dec-08 15:59N 41°13' E 002°13'1 0.9
2017-Dec-08 15:02N 41°12' E 002°13'0 0.9
2017-Dec-08 15:00N 41°12' E 002°13'0 1.0
2017-Dec-08 14:30N 41°12' E 002°12'2 2.6
2017-Dec-08 13:47N 41°13' E 002°10'311.0
2017-Dec-08 13:30N 41°10' E 002°07'612.7
2017-Dec-08 13:00N 41°06' E 002°01'613.0
2017-Dec-08 12:30N 41°01' E 001°56'  

Dump ship's entire track history